sensor_id;sensor_type;location;lat;lon;timestamp;pressure;altitude;pressure_sealevel;temperature;humidity
70521;BME280;58442;52.716;23.560;2023-01-28T00:00:02;102150.04;;;1.56;75.62
70521;BME280;58442;52.716;23.560;2023-01-28T00:02:03;102146.55;;;1.56;75.57
70521;BME280;58442;52.716;23.560;2023-01-28T00:04:05;102151.10;;;1.55;75.55
70521;BME280;58442;52.716;23.560;2023-01-28T00:06:12;102151.10;;;1.55;75.53
70521;BME280;58442;52.716;23.560;2023-01-28T00:08:14;102153.78;;;1.55;75.56
70521;BME280;58442;52.716;23.560;2023-01-28T00:10:16;102154.85;;;1.54;75.59
70521;BME280;58442;52.716;23.560;2023-01-28T00:12:18;102153.78;;;1.55;75.59
70521;BME280;58442;52.716;23.560;2023-01-28T00:14:20;102152.72;;;1.56;75.57
70521;BME280;58442;52.716;23.560;2023-01-28T00:16:23;102150.04;;;1.56;75.55
70521;BME280;58442;52.716;23.560;2023-01-28T00:18:32;102158.09;;;1.56;75.56
70521;BME280;58442;52.716;23.560;2023-01-28T00:20:33;102143.63;;;1.57;75.55
70521;BME280;58442;52.716;23.560;2023-01-28T00:22:35;102150.55;;;1.53;75.50
70521;BME280;58442;52.716;23.560;2023-01-28T00:24:36;102148.37;;;1.50;75.63
70521;BME280;58442;52.716;23.560;2023-01-28T00:26:48;102150.49;;;1.48;75.76
70521;BME280;58442;52.716;23.560;2023-01-28T00:28:49;102151.30;;;1.49;75.73
70521;BME280;58442;52.716;23.560;2023-01-28T00:30:51;102153.72;;;1.50;75.68
70521;BME280;58442;52.716;23.560;2023-01-28T00:32:52;102160.40;;;1.48;75.68
70521;BME280;58442;52.716;23.560;2023-01-28T00:35:02;102148.88;;;1.47;75.75
70521;BME280;58442;52.716;23.560;2023-01-28T00:37:04;102155.30;;;1.46;75.78
70521;BME280;58442;52.716;23.560;2023-01-28T00:39:13;102146.21;;;1.47;75.82
70521;BME280;58442;52.716;23.560;2023-01-28T00:41:25;102147.27;;;1.46;75.80
70521;BME280;58442;52.716;23.560;2023-01-28T00:43:29;102142.98;;;1.45;75.81
70521;BME280;58442;52.716;23.560;2023-01-28T00:45:38;102145.08;;;1.43;75.95
70521;BME280;58442;52.716;23.560;2023-01-28T00:47:40;102143.20;;;1.44;76.02
70521;BME280;58442;52.716;23.560;2023-01-28T00:49:48;102140.30;;;1.45;76.08
70521;BME280;58442;52.716;23.560;2023-01-28T00:51:55;102137.37;;;1.47;76.02
70521;BME280;58442;52.716;23.560;2023-01-28T00:53:56;102136.29;;;1.48;75.93
70521;BME280;58442;52.716;23.560;2023-01-28T00:56:04;102131.20;;;1.46;75.94
70521;BME280;58442;52.716;23.560;2023-01-28T00:58:07;102131.99;;;1.47;75.96
70521;BME280;58442;52.716;23.560;2023-01-28T01:00:09;102133.62;;;1.48;75.92
70521;BME280;58442;52.716;23.560;2023-01-28T01:02:11;102126.38;;;1.48;75.81
70521;BME280;58442;52.716;23.560;2023-01-28T01:04:12;102130.12;;;1.47;75.83
70521;BME280;58442;52.716;23.560;2023-01-28T01:06:14;102123.16;;;1.46;75.78
70521;BME280;58442;52.716;23.560;2023-01-28T01:08:19;102122.02;;;1.42;75.80
70521;BME280;58442;52.716;23.560;2023-01-28T01:10:30;102118.55;;;1.42;75.92
70521;BME280;58442;52.716;23.560;2023-01-28T01:12:32;102124.70;;;1.42;75.96
70521;BME280;58442;52.716;23.560;2023-01-28T01:14:34;102129.00;;;1.43;75.94
70521;BME280;58442;52.716;23.560;2023-01-28T01:16:35;102116.42;;;1.44;75.86
70521;BME280;58442;52.716;23.560;2023-01-28T01:18:43;102117.24;;;1.44;75.85
70521;BME280;58442;52.716;23.560;2023-01-28T01:22:59;102129.00;;;1.43;75.78
70521;BME280;58442;52.716;23.560;2023-01-28T01:25:05;102123.65;;;1.43;75.73
70521;BME280;58442;52.716;23.560;2023-01-28T01:27:07;102129.00;;;1.43;75.75
70521;BME280;58442;52.716;23.560;2023-01-28T01:29:11;102130.06;;;1.42;75.78
70521;BME280;58442;52.716;23.560;2023-01-28T01:31:18;102124.15;;;1.40;75.88
70521;BME280;58442;52.716;23.560;2023-01-28T01:33:24;102119.87;;;1.39;75.94
70521;BME280;58442;52.716;23.560;2023-01-28T01:35:28;102123.62;;;1.38;75.97
70521;BME280;58442;52.716;23.560;2023-01-28T01:37:30;102121.16;;;1.36;76.06
70521;BME280;58442;52.716;23.560;2023-01-28T01:39:31;102122.80;;;1.38;76.13
70521;BME280;58442;52.716;23.560;2023-01-28T01:41:35;102120.93;;;1.38;76.12
70521;BME280;58442;52.716;23.560;2023-01-28T01:43:47;102114.77;;;1.38;76.13
70521;BME280;58442;52.716;23.560;2023-01-28T01:45:59;102117.67;;;1.36;76.13
70521;BME280;58442;52.716;23.560;2023-01-28T01:48:15;102117.93;;;1.34;76.25
70521;BME280;58442;52.716;23.560;2023-01-28T01:52:41;102124.62;;;1.32;76.32
70521;BME280;58442;52.716;23.560;2023-01-28T01:57:00;102123.55;;;1.33;76.39
70521;BME280;58442;52.716;23.560;2023-01-28T01:59:19;102129.96;;;1.32;76.43
70521;BME280;58442;52.716;23.560;2023-01-28T02:01:31;102126.23;;;1.33;76.47
70521;BME280;58442;52.716;23.560;2023-01-28T02:05:48;102127.84;;;1.34;76.31
70521;BME280;58442;52.716;23.560;2023-01-28T02:07:53;102122.48;;;1.34;76.42
70521;BME280;58442;52.716;23.560;2023-01-28T02:10:08;102129.45;;;1.35;76.42
70521;BME280;58442;52.716;23.560;2023-01-28T02:12:16;102127.33;;;1.37;76.31
70521;BME280;58442;52.716;23.560;2023-01-28T02:14:26;102125.48;;;1.38;76.28
70521;BME280;58442;52.716;23.560;2023-01-28T02:16:37;102134.32;;;1.38;76.28
70521;BME280;58442;52.716;23.560;2023-01-28T02:18:38;102131.39;;;1.40;76.29
70521;BME280;58442;52.716;23.560;2023-01-28T02:20:53;102125.23;;;1.39;76.21
70521;BME280;58442;52.716;23.560;2023-01-28T02:30:10;102132.74;;;1.42;76.17
70521;BME280;58442;52.716;23.560;2023-01-28T02:34:50;102130.06;;;1.42;76.02
70521;BME280;58442;52.716;23.560;2023-01-28T02:37:15;102124.70;;;1.42;76.00
70521;BME280;58442;52.716;23.560;2023-01-28T02:39:29;102134.61;;;1.42;76.04
70521;BME280;58442;52.716;23.560;2023-01-28T02:41:38;102138.36;;;1.41;76.12
70521;BME280;58442;52.716;23.560;2023-01-28T02:43:54;102133.80;;;1.41;76.16
70521;BME280;58442;52.716;23.560;2023-01-28T02:45:57;102133.00;;;1.41;76.14
70521;BME280;58442;52.716;23.560;2023-01-28T02:48:13;102132.20;;;1.40;76.20
70521;BME280;58442;52.716;23.560;2023-01-28T02:50:17;102139.68;;;1.38;76.27
70521;BME280;58442;52.716;23.560;2023-01-28T02:55:05;102145.84;;;1.39;76.32
70521;BME280;58442;52.716;23.560;2023-01-28T02:59:41;102142.10;;;1.40;76.36
70521;BME280;58442;52.716;23.560;2023-01-28T03:06:46;102146.14;;;1.42;76.39
70521;BME280;58442;52.716;23.560;2023-01-28T03:09:01;102153.91;;;1.44;76.30
70521;BME280;58442;52.716;23.560;2023-01-28T03:11:20;102148.56;;;1.44;76.26
70521;BME280;58442;52.716;23.560;2023-01-28T03:13:42;102142.17;;;1.45;75.97
70521;BME280;58442;52.716;23.560;2023-01-28T03:16:03;102148.34;;;1.45;76.16
70521;BME280;58442;52.716;23.560;2023-01-28T03:23:21;102146.91;;;1.38;76.30
70521;BME280;58442;52.716;23.560;2023-01-28T03:25:39;102145.84;;;1.39;76.27
70521;BME280;58442;52.716;23.560;2023-01-28T03:28:02;102146.65;;;1.39;76.21
70521;BME280;58442;52.716;23.560;2023-01-28T03:30:24;102138.62;;;1.39;76.19
70521;BME280;58442;52.716;23.560;2023-01-28T03:32:39;102139.43;;;1.40;76.20
70521;BME280;58442;52.716;23.560;2023-01-28T03:34:54;102147.46;;;1.40;76.22
70521;BME280;58442;52.716;23.560;2023-01-28T03:37:16;102141.30;;;1.39;76.32
70521;BME280;58442;52.716;23.560;2023-01-28T03:39:27;102150.13;;;1.40;76.33
70521;BME280;58442;52.716;23.560;2023-01-28T03:43:58;102144.52;;;1.41;76.11
70521;BME280;58442;52.716;23.560;2023-01-28T03:46:11;102145.34;;;1.42;76.24
70521;BME280;58442;52.716;23.560;2023-01-28T03:48:13;102145.08;;;1.43;76.23
70521;BME280;58442;52.716;23.560;2023-01-28T03:50:15;102155.78;;;1.43;76.19
70521;BME280;58442;52.716;23.560;2023-01-28T03:52:20;102150.20;;;1.45;76.15
70521;BME280;58442;52.716;23.560;2023-01-28T03:54:22;102146.46;;;1.46;76.12
70521;BME280;58442;52.716;23.560;2023-01-28T03:56:25;102143.78;;;1.46;76.10
70521;BME280;58442;52.716;23.560;2023-01-28T03:58:32;102152.37;;;1.48;76.07
70521;BME280;58442;52.716;23.560;2023-01-28T04:00:46;102154.24;;;1.47;76.03
70521;BME280;58442;52.716;23.560;2023-01-28T04:02:50;102149.94;;;1.46;76.04
70521;BME280;58442;52.716;23.560;2023-01-28T04:04:57;102149.68;;;1.48;76.11
70521;BME280;58442;52.716;23.560;2023-01-28T04:06:59;102157.72;;;1.48;76.09
70521;BME280;58442;52.716;23.560;2023-01-28T04:09:00;102154.24;;;1.47;76.08
70521;BME280;58442;52.716;23.560;2023-01-28T04:11:02;102151.55;;;1.47;76.09
70521;BME280;58442;52.716;23.560;2023-01-28T04:13:16;102150.49;;;1.48;76.06
70521;BME280;58442;52.716;23.560;2023-01-28T04:15:35;102150.49;;;1.48;76.02
70521;BME280;58442;52.716;23.560;2023-01-28T04:17:36;102148.88;;;1.47;75.98
70521;BME280;58442;52.716;23.560;2023-01-28T04:19:38;102143.20;;;1.44;76.04
70521;BME280;58442;52.716;23.560;2023-01-28T04:21:43;102145.08;;;1.43;76.14
70521;BME280;58442;52.716;23.560;2023-01-28T04:23:44;102143.46;;;1.42;76.25
70521;BME280;58442;52.716;23.560;2023-01-28T04:25:49;102143.46;;;1.42;76.28
70521;BME280;58442;52.716;23.560;2023-01-28T04:27:51;102132.49;;;1.44;76.29
70521;BME280;58442;52.716;23.560;2023-01-28T04:29:52;102137.84;;;1.44;76.26
70521;BME280;58442;52.716;23.560;2023-01-28T04:31:57;102140.30;;;1.45;76.25
70521;BME280;58442;52.716;23.560;2023-01-28T04:33:59;102139.49;;;1.45;76.29
70521;BME280;58442;52.716;23.560;2023-01-28T04:36:01;102141.91;;;1.46;76.29
70521;BME280;58442;52.716;23.560;2023-01-28T04:38:02;102141.65;;;1.48;76.21
70521;BME280;58442;52.716;23.560;2023-01-28T04:40:13;102143.27;;;1.49;76.10
70521;BME280;58442;52.716;23.560;2023-01-28T04:42:18;102144.07;;;1.49;76.05
70521;BME280;58442;52.716;23.560;2023-01-28T04:44:22;102150.49;;;1.48;76.07
70521;BME280;58442;52.716;23.560;2023-01-28T04:46:23;102151.55;;;1.47;76.08
70521;BME280;58442;52.716;23.560;2023-01-28T04:48:28;102140.84;;;1.47;76.07
70521;BME280;58442;52.716;23.560;2023-01-28T04:50:37;102145.14;;;1.48;76.04
70521;BME280;58442;52.716;23.560;2023-01-28T04:52:39;102145.14;;;1.48;76.00
70521;BME280;58442;52.716;23.560;2023-01-28T04:54:46;102148.88;;;1.47;75.96
70521;BME280;58442;52.716;23.560;2023-01-28T04:56:48;102143.52;;;1.47;76.01
70521;BME280;58442;52.716;23.560;2023-01-28T04:58:49;102148.34;;;1.45;76.12
70521;BME280;58442;52.716;23.560;2023-01-28T05:03:12;102143.52;;;1.47;76.16
70521;BME280;58442;52.716;23.560;2023-01-28T05:05:24;102151.55;;;1.47;76.11
70521;BME280;58442;52.716;23.560;2023-01-28T05:07:26;102154.24;;;1.47;76.07
70521;BME280;58442;52.716;23.560;2023-01-28T05:09:30;102156.38;;;1.45;76.10
70521;BME280;58442;52.716;23.560;2023-01-28T05:11:31;102158.24;;;1.45;76.16
70521;BME280;58442;52.716;23.560;2023-01-28T05:13:35;102153.69;;;1.45;76.17
70521;BME280;58442;52.716;23.560;2023-01-28T05:15:49;102163.34;;;1.46;76.09
70521;BME280;58442;52.716;23.560;2023-01-28T05:17:57;102164.41;;;1.45;76.14
70521;BME280;58442;52.716;23.560;2023-01-28T05:19:59;102160.92;;;1.45;76.15
70521;BME280;58442;52.716;23.560;2023-01-28T05:22:01;102152.30;;;1.43;76.18
70521;BME280;58442;52.716;23.560;2023-01-28T05:24:02;102160.59;;;1.41;76.26
70521;BME280;58442;52.716;23.560;2023-01-28T05:26:12;102156.85;;;1.42;76.38
70521;BME280;58442;52.716;23.560;2023-01-28T05:28:14;102164.63;;;1.44;76.36
70521;BME280;58442;52.716;23.560;2023-01-28T05:30:21;102159.05;;;1.45;76.27
70521;BME280;58442;52.716;23.560;2023-01-28T05:32:32;102157.18;;;1.46;76.14
70521;BME280;58442;52.716;23.560;2023-01-28T05:34:33;102157.98;;;1.46;76.10
70521;BME280;58442;52.716;23.560;2023-01-28T05:36:38;102159.05;;;1.45;76.07
70521;BME280;58442;52.716;23.560;2023-01-28T05:38:41;102163.59;;;1.45;76.10
70521;BME280;58442;52.716;23.560;2023-01-28T05:40:43;102159.53;;;1.42;76.19
70521;BME280;58442;52.716;23.560;2023-01-28T05:42:45;102167.56;;;1.42;76.28
70521;BME280;58442;52.716;23.560;2023-01-28T05:44:47;102174.54;;;1.43;76.28
70521;BME280;58442;52.716;23.560;2023-01-28T05:46:59;102180.70;;;1.44;76.24
70521;BME280;58442;52.716;23.560;2023-01-28T05:49:00;102181.54;;;1.44;76.18
70521;BME280;58442;52.716;23.560;2023-01-28T05:51:04;102182.35;;;1.45;76.17
70521;BME280;58442;52.716;23.560;2023-01-28T05:53:07;102183.38;;;1.44;76.16
70521;BME280;58442;52.716;23.560;2023-01-28T05:55:16;102182.57;;;1.43;76.18
70521;BME280;58442;52.716;23.560;2023-01-28T05:57:24;102182.83;;;1.42;76.19
70521;BME280;58442;52.716;23.560;2023-01-28T05:59:25;102182.02;;;1.41;76.20
70521;BME280;58442;52.716;23.560;2023-01-28T06:01:37;102184.45;;;1.43;76.31
70521;BME280;58442;52.716;23.560;2023-01-28T06:03:45;102182.83;;;1.42;76.39
70521;BME280;58442;52.716;23.560;2023-01-28T06:05:47;102185.25;;;1.43;76.43
70521;BME280;58442;52.716;23.560;2023-01-28T06:07:56;102179.09;;;1.43;76.40
70521;BME280;58442;52.716;23.560;2023-01-28T06:10:03;102179.09;;;1.43;76.45
70521;BME280;58442;52.716;23.560;2023-01-28T06:12:14;102185.84;;;1.45;76.43
70521;BME280;58442;52.716;23.560;2023-01-28T06:14:15;102185.84;;;1.45;76.36
70521;BME280;58442;52.716;23.560;2023-01-28T06:16:17;102190.13;;;1.46;76.35
70521;BME280;58442;52.716;23.560;2023-01-28T06:18:18;102188.51;;;1.45;76.28
70521;BME280;58442;52.716;23.560;2023-01-28T06:20:29;102187.71;;;1.45;76.40
70521;BME280;58442;52.716;23.560;2023-01-28T06:22:38;102188.51;;;1.45;76.40
70521;BME280;58442;52.716;23.560;2023-01-28T06:24:39;102191.20;;;1.45;76.43
70521;BME280;58442;52.716;23.560;2023-01-28T06:26:41;102192.81;;;1.46;76.46
70521;BME280;58442;52.716;23.560;2023-01-28T06:28:44;102186.38;;;1.47;76.49
70521;BME280;58442;52.716;23.560;2023-01-28T06:30:49;102196.03;;;1.48;76.47
70521;BME280;58442;52.716;23.560;2023-01-28T06:35:05;102194.71;;;1.51;76.41
70521;BME280;58442;52.716;23.560;2023-01-28T06:37:06;102199.84;;;1.52;76.38
70521;BME280;58442;52.716;23.560;2023-01-28T06:39:07;102201.47;;;1.53;76.33
70521;BME280;58442;52.716;23.560;2023-01-28T06:41:09;102195.30;;;1.53;76.37
70521;BME280;58442;52.716;23.560;2023-01-28T06:43:10;102196.91;;;1.54;76.36
70521;BME280;58442;52.716;23.560;2023-01-28T06:45:20;102200.95;;;1.56;76.29
70521;BME280;58442;52.716;23.560;2023-01-28T06:47:24;102204.43;;;1.57;76.21
70521;BME280;58442;52.716;23.560;2023-01-28T06:49:25;102203.40;;;1.58;76.19
70521;BME280;58442;52.716;23.560;2023-01-28T06:51:27;102202.55;;;1.57;76.17
70521;BME280;58442;52.716;23.560;2023-01-28T06:53:31;102199.07;;;1.57;76.16
70521;BME280;58442;52.716;23.560;2023-01-28T06:55:38;102203.40;;;1.58;76.23
70521;BME280;58442;52.716;23.560;2023-01-28T06:57:47;102208.24;;;1.61;76.27
70521;BME280;58442;52.716;23.560;2023-01-28T06:59:49;102202.08;;;1.60;76.27
70521;BME280;58442;52.716;23.560;2023-01-28T07:02:00;102206.63;;;1.60;76.29
70521;BME280;58442;52.716;23.560;2023-01-28T07:04:07;102204.21;;;1.58;76.41
70521;BME280;58442;52.716;23.560;2023-01-28T07:06:12;102203.69;;;1.61;76.40
70521;BME280;58442;52.716;23.560;2023-01-28T07:08:16;102210.67;;;1.62;76.39
70521;BME280;58442;52.716;23.560;2023-01-28T07:10:17;102201.56;;;1.63;76.45
70521;BME280;58442;52.716;23.560;2023-01-28T07:12:23;102208.54;;;1.64;76.42
70521;BME280;58442;52.716;23.560;2023-01-28T07:14:24;102206.70;;;1.65;76.41
70521;BME280;58442;52.716;23.560;2023-01-28T07:16:25;102210.99;;;1.66;76.43
70521;BME280;58442;52.716;23.560;2023-01-28T07:18:26;102213.41;;;1.68;76.40
70521;BME280;58442;52.716;23.560;2023-01-28T07:20:37;102211.28;;;1.70;76.36
70521;BME280;58442;52.716;23.560;2023-01-28T07:22:40;102219.05;;;1.71;76.34
70521;BME280;58442;52.716;23.560;2023-01-28T07:24:45;102205.43;;;1.73;76.28
70521;BME280;58442;52.716;23.560;2023-01-28T07:26:54;102209.73;;;1.74;76.21
70521;BME280;58442;52.716;23.560;2023-01-28T07:28:56;102207.05;;;1.74;76.17
70521;BME280;58442;52.716;23.560;2023-01-28T07:31:01;102212.41;;;1.74;76.18
70521;BME280;58442;52.716;23.560;2023-01-28T07:33:03;102222.33;;;1.73;76.18
70521;BME280;58442;52.716;23.560;2023-01-28T07:35:05;102223.13;;;1.74;76.23
70521;BME280;58442;52.716;23.560;2023-01-28T07:37:08;102226.36;;;1.76;76.29
70521;BME280;58442;52.716;23.560;2023-01-28T07:39:10;102227.97;;;1.77;76.21
70521;BME280;58442;52.716;23.560;2023-01-28T07:41:11;102228.78;;;1.77;76.19
70521;BME280;58442;52.716;23.560;2023-01-28T07:43:14;102218.06;;;1.77;76.22
70521;BME280;58442;52.716;23.560;2023-01-28T07:45:24;102217.26;;;1.77;76.26
70521;BME280;58442;52.716;23.560;2023-01-28T07:47:32;102222.62;;;1.77;76.36
70521;BME280;58442;52.716;23.560;2023-01-28T07:49:33;102218.87;;;1.78;76.38
70521;BME280;58442;52.716;23.560;2023-01-28T07:51:37;102223.74;;;1.81;76.24
70521;BME280;58442;52.716;23.560;2023-01-28T07:53:39;102219.99;;;1.82;76.14
70521;BME280;58442;52.716;23.560;2023-01-28T07:55:41;102221.61;;;1.83;76.11
70521;BME280;58442;52.716;23.560;2023-01-28T07:57:51;102225.68;;;1.85;76.08
70521;BME280;58442;52.716;23.560;2023-01-28T07:59:53;102224.36;;;1.88;76.03
70521;BME280;58442;52.716;23.560;2023-01-28T08:02:00;102224.09;;;1.89;76.03
70521;BME280;58442;52.716;23.560;2023-01-28T08:04:02;102217.67;;;1.90;75.99
70521;BME280;58442;52.716;23.560;2023-01-28T08:06:06;102223.84;;;1.91;75.96
70521;BME280;58442;52.716;23.560;2023-01-28T08:08:08;102223.84;;;1.91;76.00
70521;BME280;58442;52.716;23.560;2023-01-28T08:10:15;102219.28;;;1.91;75.99
70521;BME280;58442;52.716;23.560;2023-01-28T08:12:19;102227.33;;;1.91;76.03
70521;BME280;58442;52.716;23.560;2023-01-28T08:14:21;102220.93;;;1.93;76.07
70521;BME280;58442;52.716;23.560;2023-01-28T08:16:22;102223.09;;;1.96;76.04
70521;BME280;58442;52.716;23.560;2023-01-28T08:18:25;102222.84;;;1.97;76.00
70521;BME280;58442;52.716;23.560;2023-01-28T08:20:28;102220.97;;;1.98;76.02
70521;BME280;58442;52.716;23.560;2023-01-28T08:22:32;102223.41;;;1.99;76.00
70521;BME280;58442;52.716;23.560;2023-01-28T08:24:33;102216.98;;;2.00;75.94
70521;BME280;58442;52.716;23.560;2023-01-28T08:26:40;102219.41;;;2.02;75.95
70521;BME280;58442;52.716;23.560;2023-01-28T08:28:44;102211.90;;;2.04;75.96
70521;BME280;58442;52.716;23.560;2023-01-28T08:30:46;102216.78;;;2.07;75.91
70521;BME280;58442;52.716;23.560;2023-01-28T08:32:48;102217.59;;;2.07;75.83
70521;BME280;58442;52.716;23.560;2023-01-28T08:34:56;102209.28;;;2.09;75.74
70521;BME280;58442;52.716;23.560;2023-01-28T08:36:57;102205.53;;;2.10;75.73
70521;BME280;58442;52.716;23.560;2023-01-28T08:38:58;102207.96;;;2.11;75.68
70521;BME280;58442;52.716;23.560;2023-01-28T08:41:00;102212.84;;;2.14;75.72
70521;BME280;58442;52.716;23.560;2023-01-28T08:43:11;102210.15;;;2.14;75.72
70521;BME280;58442;52.716;23.560;2023-01-28T08:45:12;102205.33;;;2.16;75.68
70521;BME280;58442;52.716;23.560;2023-01-28T08:47:14;102213.13;;;2.18;75.63
70521;BME280;58442;52.716;23.560;2023-01-28T08:49:15;102216.59;;;2.18;75.58
70521;BME280;58442;52.716;23.560;2023-01-28T08:51:25;102214.50;;;2.21;75.55
70521;BME280;58442;52.716;23.560;2023-01-28T08:53:27;102211.81;;;2.21;75.58
70521;BME280;58442;52.716;23.560;2023-01-28T08:55:29;102211.81;;;2.21;75.53
70521;BME280;58442;52.716;23.560;2023-01-28T08:57:31;102217.98;;;2.21;75.49
70521;BME280;58442;52.716;23.560;2023-01-28T08:59:44;102220.67;;;2.21;75.49
70521;BME280;58442;52.716;23.560;2023-01-28T09:01:47;102219.60;;;2.22;75.46
70521;BME280;58442;52.716;23.560;2023-01-28T09:03:48;102219.60;;;2.22;75.45
70521;BME280;58442;52.716;23.560;2023-01-28T09:05:49;102217.73;;;2.23;75.48
70521;BME280;58442;52.716;23.560;2023-01-28T09:07:56;102222.28;;;2.22;75.45
70521;BME280;58442;52.716;23.560;2023-01-28T09:10:00;102220.41;;;2.23;75.50
70521;BME280;58442;52.716;23.560;2023-01-28T09:12:01;102222.03;;;2.24;75.54
70521;BME280;58442;52.716;23.560;2023-01-28T09:14:03;102224.44;;;2.25;75.54
70521;BME280;58442;52.716;23.560;2023-01-28T09:16:11;102216.98;;;2.27;75.43
70521;BME280;58442;52.716;23.560;2023-01-28T09:18:15;102222.56;;;2.26;75.42
70521;BME280;58442;52.716;23.560;2023-01-28T09:20:16;102220.15;;;2.24;75.34
70521;BME280;58442;52.716;23.560;2023-01-28T09:22:23;102227.38;;;2.24;75.36
70521;BME280;58442;52.716;23.560;2023-01-28T09:24:26;102231.95;;;2.23;75.50
70521;BME280;58442;52.716;23.560;2023-01-28T09:26:27;102228.46;;;2.23;75.51
70521;BME280;58442;52.716;23.560;2023-01-28T09:28:32;102224.44;;;2.25;75.44
70521;BME280;58442;52.716;23.560;2023-01-28T09:30:34;102234.36;;;2.25;75.38
70521;BME280;58442;52.716;23.560;2023-01-28T09:32:41;102230.62;;;2.26;75.39
70521;BME280;58442;52.716;23.560;2023-01-28T09:34:43;102229.58;;;2.27;75.36
70521;BME280;58442;52.716;23.560;2023-01-28T09:36:44;102230.62;;;2.26;75.36
70521;BME280;58442;52.716;23.560;2023-01-28T09:38:51;102232.27;;;2.27;75.38
70521;BME280;58442;52.716;23.560;2023-01-28T09:40:56;102225.82;;;2.28;75.36
70521;BME280;58442;52.716;23.560;2023-01-28T09:45:18;102226.38;;;2.30;75.31
70521;BME280;58442;52.716;23.560;2023-01-28T09:49:42;102221.53;;;2.27;75.29
70521;BME280;58442;52.716;23.560;2023-01-28T09:51:48;102225.77;;;2.23;75.43
70521;BME280;58442;52.716;23.560;2023-01-28T09:54:10;102226.27;;;2.19;75.63
70521;BME280;58442;52.716;23.560;2023-01-28T09:56:26;102221.74;;;2.20;75.68
70521;BME280;58442;52.716;23.560;2023-01-28T09:58:42;102224.16;;;2.22;75.72
70521;BME280;58442;52.716;23.560;2023-01-28T10:00:53;102227.38;;;2.24;75.59
70521;BME280;58442;52.716;23.560;2023-01-28T10:05:19;102211.29;;;2.24;75.42
70521;BME280;58442;52.716;23.560;2023-01-28T10:07:33;102210.23;;;2.25;75.47
70521;BME280;58442;52.716;23.560;2023-01-28T10:12:07;102212.41;;;2.28;75.35
70521;BME280;58442;52.716;23.560;2023-01-28T10:14:22;102204.91;;;2.30;75.40
70521;BME280;58442;52.716;23.560;2023-01-28T10:16:40;102199.02;;;2.33;75.33
70521;BME280;58442;52.716;23.560;2023-01-28T10:21:22;102208.45;;;2.35;75.24
70521;BME280;58442;52.716;23.560;2023-01-28T10:23:44;102209.80;;;2.38;75.14
70521;BME280;58442;52.716;23.560;2023-01-28T10:26:00;102203.89;;;2.36;75.01
70521;BME280;58442;52.716;23.560;2023-01-28T10:30:23;102206.53;;;2.31;75.08
70521;BME280;58442;52.716;23.560;2023-01-28T10:32:29;102203.04;;;2.30;75.17
70521;BME280;58442;52.716;23.560;2023-01-28T10:34:31;102205.45;;;2.32;75.16
70521;BME280;58442;52.716;23.560;2023-01-28T10:36:42;102208.95;;;2.32;75.15
70521;BME280;58442;52.716;23.560;2023-01-28T10:38:44;102206.53;;;2.31;75.24
70521;BME280;58442;52.716;23.560;2023-01-28T10:40:47;102204.66;;;2.31;75.27
70521;BME280;58442;52.716;23.560;2023-01-28T10:42:51;102199.83;;;2.33;75.16
70521;BME280;58442;52.716;23.560;2023-01-28T10:49:44;102194.45;;;2.28;75.41
70521;BME280;58442;52.716;23.560;2023-01-28T10:51:47;102195.26;;;2.29;75.22
70521;BME280;58442;52.716;23.560;2023-01-28T10:53:48;102194.73;;;2.32;75.16
70521;BME280;58442;52.716;23.560;2023-01-28T10:55:56;102182.94;;;2.33;75.04
70521;BME280;58442;52.716;23.560;2023-01-28T10:57:59;102193.66;;;2.33;74.98
70521;BME280;58442;52.716;23.560;2023-01-28T11:00:23;102189.94;;;2.34;74.93
70521;BME280;58442;52.716;23.560;2023-01-28T11:02:31;102189.62;;;2.30;74.88
70521;BME280;58442;52.716;23.560;2023-01-28T11:04:35;102187.70;;;2.26;75.14
70521;BME280;58442;52.716;23.560;2023-01-28T11:06:36;102186.66;;;2.27;75.19
70521;BME280;58442;52.716;23.560;2023-01-28T11:08:43;102188.51;;;2.26;75.19
70521;BME280;58442;52.716;23.560;2023-01-28T11:10:46;102182.85;;;2.23;75.29
70521;BME280;58442;52.716;23.560;2023-01-28T11:12:56;102182.85;;;2.23;75.42
70521;BME280;58442;52.716;23.560;2023-01-28T11:15:04;102177.77;;;2.26;75.38
70521;BME280;58442;52.716;23.560;2023-01-28T11:17:11;102182.10;;;2.27;75.22
70521;BME280;58442;52.716;23.560;2023-01-28T11:19:18;102176.22;;;2.30;75.08
70521;BME280;58442;52.716;23.560;2023-01-28T11:21:22;102178.63;;;2.32;75.00
70521;BME280;58442;52.716;23.560;2023-01-28T11:23:31;102179.70;;;2.31;74.97
70521;BME280;58442;52.716;23.560;2023-01-28T11:25:36;102169.78;;;2.31;74.95
70521;BME280;58442;52.716;23.560;2023-01-28T11:27:38;102170.58;;;2.32;74.96
70521;BME280;58442;52.716;23.560;2023-01-28T11:29:40;102166.84;;;2.33;74.89
70521;BME280;58442;52.716;23.560;2023-01-28T11:31:45;102163.91;;;2.34;74.79
70521;BME280;58442;52.716;23.560;2023-01-28T11:33:55;102172.20;;;2.33;74.75
70521;BME280;58442;52.716;23.560;2023-01-28T11:36:11;102160.66;;;2.32;74.64
70521;BME280;58442;52.716;23.560;2023-01-28T11:38:20;102155.27;;;2.27;74.77
70521;BME280;58442;52.716;23.560;2023-01-28T11:40:29;102159.52;;;2.23;74.85
70521;BME280;58442;52.716;23.560;2023-01-28T11:42:30;102163.27;;;2.22;74.94
70521;BME280;58442;52.716;23.560;2023-01-28T11:44:32;102162.75;;;2.25;74.92
70521;BME280;58442;52.716;23.560;2023-01-28T11:53:36;102163.56;;;2.26;74.77
70521;BME280;58442;52.716;23.560;2023-01-28T11:56:00;102161.68;;;2.26;74.83
70521;BME280;58442;52.716;23.560;2023-01-28T11:58:20;102160.88;;;2.26;74.75
70521;BME280;58442;52.716;23.560;2023-01-28T12:00:40;102159.78;;;2.22;74.79
70521;BME280;58442;52.716;23.560;2023-01-28T12:07:44;102153.05;;;2.19;74.74
70521;BME280;58442;52.716;23.560;2023-01-28T12:10:03;102147.13;;;2.17;74.88